Terminal Aerodrome Forecast
Issued by NWS

Current Version | Previous Version | Text Only | Print | Product List | Glossary On
Versions: 1 2 3 4 5 6 7 8 9 10 11 12 13 14 15 16 17 18 19 20 21
000
FTUS43 KDLH 222340
TAFHYR
TAF
KHYR 222340Z 2300/2324 15004KT P6SM VCSH BKN035 OVC060
     FM230300 VRB03KT 1SM -SN OVC030
     FM230600 VRB03KT 3/4SM -SN OVC025
     FM231200 00000KT 1 1/2SM -SN OVC008
     FM231400 00000KT P6SM VCSH OVC008
     FM231700 28005KT P6SM BKN015=

USA.gov is the U.S. government's official web portal to all federal, state and local government web resources and services.